sensor_id;sensor_type;location;lat;lon;timestamp;pressure;altitude;pressure_sealevel;temperature;humidity
27334;BME280;14817;57.104;-2.094;2023-02-04T00:01:57;101903.59;;;7.95;100.00
27334;BME280;14817;57.104;-2.094;2023-02-04T00:04:24;101906.38;;;7.94;100.00
27334;BME280;14817;57.104;-2.094;2023-02-04T00:06:51;101908.75;;;7.98;100.00
27334;BME280;14817;57.104;-2.094;2023-02-04T00:09:17;101904.47;;;7.96;100.00
27334;BME280;14817;57.104;-2.094;2023-02-04T00:11:44;101904.75;;;7.91;100.00
27334;BME280;14817;57.104;-2.094;2023-02-04T00:14:11;101903.13;;;7.89;100.00
27334;BME280;14817;57.104;-2.094;2023-02-04T00:16:38;101898.56;;;7.91;100.00
27334;BME280;14817;57.104;-2.094;2023-02-04T00:19:04;101904.66;;;7.93;100.00
27334;BME280;14817;57.104;-2.094;2023-02-04T00:21:31;101908.91;;;7.95;100.00
27334;BME280;14817;57.104;-2.094;2023-02-04T00:23:57;101907.22;;;7.94;100.00
27334;BME280;14817;57.104;-2.094;2023-02-04T00:26:24;101909.13;;;7.92;100.00
27334;BME280;14817;57.104;-2.094;2023-02-04T00:28:51;101909.97;;;7.93;100.00
27334;BME280;14817;57.104;-2.094;2023-02-04T00:31:17;101910.84;;;7.93;100.00
27334;BME280;14817;57.104;-2.094;2023-02-04T00:33:44;101917.91;;;7.94;100.00
27334;BME280;14817;57.104;-2.094;2023-02-04T00:36:11;101915.41;;;7.91;100.00
27334;BME280;14817;57.104;-2.094;2023-02-04T00:38:37;101921.72;;;7.90;100.00
27334;BME280;14817;57.104;-2.094;2023-02-04T00:41:05;101921.94;;;7.87;100.00
27334;BME280;14817;57.104;-2.094;2023-02-04T00:43:32;101912.28;;;7.85;100.00
27334;BME280;14817;57.104;-2.094;2023-02-04T00:45:59;101916.59;;;7.87;100.00
27334;BME280;14817;57.104;-2.094;2023-02-04T00:48:25;101914.88;;;7.86;100.00
27334;BME280;14817;57.104;-2.094;2023-02-04T00:50:52;101915.72;;;7.87;100.00
27334;BME280;14817;57.104;-2.094;2023-02-04T00:53:19;101916.38;;;7.90;100.00
27334;BME280;14817;57.104;-2.094;2023-02-04T00:55:46;101918.09;;;7.91;100.00
27334;BME280;14817;57.104;-2.094;2023-02-04T00:58:12;101915.22;;;7.94;100.00
27334;BME280;14817;57.104;-2.094;2023-02-04T01:00:39;101910.84;;;7.93;100.00
27334;BME280;14817;57.104;-2.094;2023-02-04T01:03:06;101908.91;;;7.95;100.00
27334;BME280;14817;57.104;-2.094;2023-02-04T01:05:33;101908.91;;;7.95;100.00
27334;BME280;14817;57.104;-2.094;2023-02-04T01:08:00;101910.25;;;8.03;100.00
27334;BME280;14817;57.104;-2.094;2023-02-04T01:10:27;101914.44;;;8.07;100.00
27334;BME280;14817;57.104;-2.094;2023-02-04T01:12:55;101911.75;;;8.07;100.00
27334;BME280;14817;57.104;-2.094;2023-02-04T01:15:22;101918.13;;;8.04;100.00
27334;BME280;14817;57.104;-2.094;2023-02-04T01:17:49;101922.06;;;7.98;100.00
27334;BME280;14817;57.104;-2.094;2023-02-04T01:20:15;101910.66;;;7.96;100.00
27334;BME280;14817;57.104;-2.094;2023-02-04T01:22:42;101911.72;;;7.94;100.00
27334;BME280;14817;57.104;-2.094;2023-02-04T01:25:09;101917.91;;;7.94;100.00
27334;BME280;14817;57.104;-2.094;2023-02-04T01:27:39;101928.16;;;8.01;100.00
27334;BME280;14817;57.104;-2.094;2023-02-04T01:30:06;101915.78;;;8.00;100.00
27334;BME280;14817;57.104;-2.094;2023-02-04T01:32:33;101927.41;;;7.98;100.00
27334;BME280;14817;57.104;-2.094;2023-02-04T01:35:00;101926.44;;;8.00;100.00
27334;BME280;14817;57.104;-2.094;2023-02-04T01:37:26;101925.59;;;7.99;100.00
27334;BME280;14817;57.104;-2.094;2023-02-04T01:39:53;101933.81;;;7.96;100.00
27334;BME280;14817;57.104;-2.094;2023-02-04T01:42:19;101934.84;;;7.93;100.00
27334;BME280;14817;57.104;-2.094;2023-02-04T01:44:46;101927.06;;;7.90;100.00
27334;BME280;14817;57.104;-2.094;2023-02-04T01:47:13;101916.94;;;7.95;100.00
27334;BME280;14817;57.104;-2.094;2023-02-04T01:49:40;101924.06;;;7.95;100.00
27334;BME280;14817;57.104;-2.094;2023-02-04T01:52:07;101925.81;;;7.96;100.00
27334;BME280;14817;57.104;-2.094;2023-02-04T01:54:35;101925.81;;;7.96;100.00
27334;BME280;14817;57.104;-2.094;2023-02-04T01:57:02;101928.56;;;7.94;100.00
27334;BME280;14817;57.104;-2.094;2023-02-04T01:59:29;101934.09;;;7.91;100.00
27334;BME280;14817;57.104;-2.094;2023-02-04T02:01:58;101930.78;;;7.88;100.00
27334;BME280;14817;57.104;-2.094;2023-02-04T02:04:28;101925.16;;;7.92;100.00
27334;BME280;14817;57.104;-2.094;2023-02-04T02:07:00;101927.59;;;7.95;100.00
27334;BME280;14817;57.104;-2.094;2023-02-04T02:09:28;101935.41;;;7.98;100.00
27334;BME280;14817;57.104;-2.094;2023-02-04T02:11:55;101930.84;;;8.01;100.00
27334;BME280;14817;57.104;-2.094;2023-02-04T02:14:24;101928.56;;;7.94;100.00
27334;BME280;14817;57.104;-2.094;2023-02-04T02:16:51;101931.41;;;7.91;100.00
27334;BME280;14817;57.104;-2.094;2023-02-04T02:19:25;101926.84;;;7.93;100.00
27334;BME280;14817;57.104;-2.094;2023-02-04T02:21:55;101926.56;;;7.98;100.00
27334;BME280;14817;57.104;-2.094;2023-02-04T02:24:25;101931.59;;;8.03;100.00
27334;BME280;14817;57.104;-2.094;2023-02-04T02:26:53;101935.56;;;8.10;100.00
27334;BME280;14817;57.104;-2.094;2023-02-04T02:29:23;101936.72;;;8.06;100.00
27334;BME280;14817;57.104;-2.094;2023-02-04T02:31:49;101933.84;;;8.09;100.00
27334;BME280;14817;57.104;-2.094;2023-02-04T02:34:16;101929.69;;;8.05;100.00
27334;BME280;14817;57.104;-2.094;2023-02-04T02:36:43;101923.59;;;8.03;100.00
27334;BME280;14817;57.104;-2.094;2023-02-04T02:39:10;101919.09;;;8.03;100.00
27334;BME280;14817;57.104;-2.094;2023-02-04T02:41:37;101919.63;;;8.08;100.00
27334;BME280;14817;57.104;-2.094;2023-02-04T02:44:04;101908.88;;;8.10;100.00
27334;BME280;14817;57.104;-2.094;2023-02-04T02:46:30;101911.44;;;8.11;100.00
27334;BME280;14817;57.104;-2.094;2023-02-04T02:48:57;101914.66;;;8.16;100.00
27334;BME280;14817;57.104;-2.094;2023-02-04T02:51:25;101912.63;;;8.20;100.00
27334;BME280;14817;57.104;-2.094;2023-02-04T02:53:51;101904.41;;;8.23;100.00
27334;BME280;14817;57.104;-2.094;2023-02-04T02:56:18;101911.47;;;8.24;100.00
27334;BME280;14817;57.104;-2.094;2023-02-04T02:58:45;101900.72;;;8.26;100.00
27334;BME280;14817;57.104;-2.094;2023-02-04T03:01:12;101904.31;;;8.25;100.00
27334;BME280;14817;57.104;-2.094;2023-02-04T03:03:40;101900.91;;;8.23;100.00
27334;BME280;14817;57.104;-2.094;2023-02-04T03:06:12;101906.91;;;8.26;100.00
27334;BME280;14817;57.104;-2.094;2023-02-04T03:08:41;101908.06;;;8.22;100.00
27334;BME280;14817;57.104;-2.094;2023-02-04T03:11:08;101905.50;;;8.21;100.00
27334;BME280;14817;57.104;-2.094;2023-02-04T03:13:36;101911.66;;;8.21;100.00
27334;BME280;14817;57.104;-2.094;2023-02-04T03:16:03;101908.06;;;8.22;100.00
27334;BME280;14817;57.104;-2.094;2023-02-04T03:18:30;101914.56;;;8.18;100.00
27334;BME280;14817;57.104;-2.094;2023-02-04T03:21:00;101910.72;;;8.22;100.00
27334;BME280;14817;57.104;-2.094;2023-02-04T03:23:28;101904.97;;;8.28;100.00
27334;BME280;14817;57.104;-2.094;2023-02-04T03:25:55;101902.09;;;8.31;100.00
27334;BME280;14817;57.104;-2.094;2023-02-04T03:28:21;101906.50;;;8.32;100.00
27334;BME280;14817;57.104;-2.094;2023-02-04T03:30:48;101897.31;;;8.36;100.00
27334;BME280;14817;57.104;-2.094;2023-02-04T03:33:22;101903.13;;;8.43;100.00
27334;BME280;14817;57.104;-2.094;2023-02-04T03:35:49;101911.88;;;8.45;100.00
27334;BME280;14817;57.104;-2.094;2023-02-04T03:38:17;101907.16;;;8.49;100.00
27334;BME280;14817;57.104;-2.094;2023-02-04T03:40:45;101903.97;;;8.44;100.00
27334;BME280;14817;57.104;-2.094;2023-02-04T03:43:12;101904.16;;;8.41;100.00
27334;BME280;14817;57.104;-2.094;2023-02-04T03:45:38;101898.81;;;8.41;100.00
27334;BME280;14817;57.104;-2.094;2023-02-04T03:48:11;101897.78;;;8.43;100.00
27334;BME280;14817;57.104;-2.094;2023-02-04T03:50:37;101897.78;;;8.43;100.00
27334;BME280;14817;57.104;-2.094;2023-02-04T03:53:04;101898.81;;;8.41;100.00
27334;BME280;14817;57.104;-2.094;2023-02-04T03:55:31;101896.91;;;8.43;100.00
27334;BME280;14817;57.104;-2.094;2023-02-04T03:57:58;101895.44;;;8.51;100.00
27334;BME280;14817;57.104;-2.094;2023-02-04T04:00:25;101906.75;;;8.55;100.00
27334;BME280;14817;57.104;-2.094;2023-02-04T04:02:51;101913.50;;;8.61;100.00
27334;BME280;14817;57.104;-2.094;2023-02-04T04:05:18;101906.25;;;8.63;100.00
27334;BME280;14817;57.104;-2.094;2023-02-04T04:07:45;101909.75;;;8.63;100.00
27334;BME280;14817;57.104;-2.094;2023-02-04T04:10:11;101909.09;;;8.59;100.00
27334;BME280;14817;57.104;-2.094;2023-02-04T04:12:38;101914.66;;;8.56;100.00
27334;BME280;14817;57.104;-2.094;2023-02-04T04:15:05;101911.69;;;8.61;100.00
27334;BME280;14817;57.104;-2.094;2023-02-04T04:17:32;101911.03;;;8.57;100.00
27334;BME280;14817;57.104;-2.094;2023-02-04T04:19:58;101909.53;;;8.53;100.00
27334;BME280;14817;57.104;-2.094;2023-02-04T04:22:25;101910.59;;;8.51;100.00
27334;BME280;14817;57.104;-2.094;2023-02-04T04:24:52;101907.72;;;8.54;100.00
27334;BME280;14817;57.104;-2.094;2023-02-04T04:27:19;101909.97;;;8.60;100.00
27334;BME280;14817;57.104;-2.094;2023-02-04T04:29:45;101910.19;;;8.57;100.00
27334;BME280;14817;57.104;-2.094;2023-02-04T04:32:12;101909.31;;;8.56;100.00
27334;BME280;14817;57.104;-2.094;2023-02-04T04:34:38;101904.19;;;8.53;100.00
27334;BME280;14817;57.104;-2.094;2023-02-04T04:37:05;101905.25;;;8.51;100.00
27334;BME280;14817;57.104;-2.094;2023-02-04T04:39:32;101900.31;;;8.45;100.00
27334;BME280;14817;57.104;-2.094;2023-02-04T04:41:58;101900.53;;;8.42;100.00
27334;BME280;14817;57.104;-2.094;2023-02-04T04:44:25;101898.63;;;8.44;100.00
27334;BME280;14817;57.104;-2.094;2023-02-04T04:46:51;101903.75;;;8.47;100.00
27334;BME280;14817;57.104;-2.094;2023-02-04T04:49:19;101904.50;;;8.49;100.00
27334;BME280;14817;57.104;-2.094;2023-02-04T04:51:45;101909.31;;;8.44;100.00
27334;BME280;14817;57.104;-2.094;2023-02-04T04:54:12;101913.69;;;8.45;100.00
27334;BME280;14817;57.104;-2.094;2023-02-04T04:56:39;101904.91;;;8.43;100.00
27334;BME280;14817;57.104;-2.094;2023-02-04T04:59:05;101909.91;;;8.34;100.00
27334;BME280;14817;57.104;-2.094;2023-02-04T05:01:32;101909.03;;;8.34;100.00
27334;BME280;14817;57.104;-2.094;2023-02-04T05:03:59;101916.19;;;8.33;100.00
27334;BME280;14817;57.104;-2.094;2023-02-04T05:06:25;101907.03;;;8.37;100.00
27334;BME280;14817;57.104;-2.094;2023-02-04T05:08:52;101905.19;;;8.38;100.00
27334;BME280;14817;57.104;-2.094;2023-02-04T05:11:19;101899.00;;;8.37;100.00
27334;BME280;14817;57.104;-2.094;2023-02-04T05:13:46;101906.06;;;8.38;100.00
27334;BME280;14817;57.104;-2.094;2023-02-04T05:16:13;101902.66;;;8.36;100.00
27334;BME280;14817;57.104;-2.094;2023-02-04T05:18:40;101911.59;;;8.35;100.00
27334;BME280;14817;57.104;-2.094;2023-02-04T05:21:07;101899.22;;;8.34;100.00
27334;BME280;14817;57.104;-2.094;2023-02-04T05:23:34;101906.28;;;8.35;100.00
27334;BME280;14817;57.104;-2.094;2023-02-04T05:26:00;101914.69;;;8.29;100.00
27334;BME280;14817;57.104;-2.094;2023-02-04T05:28:27;101917.56;;;8.26;100.00
27334;BME280;14817;57.104;-2.094;2023-02-04T05:30:54;101914.06;;;8.26;100.00
27334;BME280;14817;57.104;-2.094;2023-02-04T05:33:20;101905.59;;;8.32;100.00
27334;BME280;14817;57.104;-2.094;2023-02-04T05:35:47;101910.50;;;8.25;100.00
27334;BME280;14817;57.104;-2.094;2023-02-04T05:38:15;101905.06;;;8.27;100.00
27334;BME280;14817;57.104;-2.094;2023-02-04T05:40:41;101920.44;;;8.23;100.00
27334;BME280;14817;57.104;-2.094;2023-02-04T05:43:08;101905.06;;;8.27;100.00
27334;BME280;14817;57.104;-2.094;2023-02-04T05:45:35;101916.50;;;8.29;100.00
27334;BME280;14817;57.104;-2.094;2023-02-04T05:48:01;101911.47;;;8.24;100.00
27334;BME280;14817;57.104;-2.094;2023-02-04T05:50:28;101913.31;;;8.24;100.00
27334;BME280;14817;57.104;-2.094;2023-02-04T05:53:06;101912.22;;;8.26;100.00
27334;BME280;14817;57.104;-2.094;2023-02-04T05:55:33;101912.09;;;8.28;100.00
27334;BME280;14817;57.104;-2.094;2023-02-04T05:58:00;101912.00;;;8.29;100.00
27334;BME280;14817;57.104;-2.094;2023-02-04T06:00:26;101911.06;;;8.30;100.00
27334;BME280;14817;57.104;-2.094;2023-02-04T06:02:53;101911.38;;;8.26;100.00
27334;BME280;14817;57.104;-2.094;2023-02-04T06:05:20;101911.47;;;8.24;100.00
27334;BME280;14817;57.104;-2.094;2023-02-04T06:07:48;101917.88;;;8.22;100.00
27334;BME280;14817;57.104;-2.094;2023-02-04T06:10:15;101914.34;;;8.21;100.00
27334;BME280;14817;57.104;-2.094;2023-02-04T06:12:42;101923.00;;;8.25;100.00
27334;BME280;14817;57.104;-2.094;2023-02-04T06:15:08;101922.25;;;8.23;100.00
27334;BME280;14817;57.104;-2.094;2023-02-04T06:17:37;101919.69;;;8.21;100.00
27334;BME280;14817;57.104;-2.094;2023-02-04T06:20:04;101926.84;;;8.21;100.00
27334;BME280;14817;57.104;-2.094;2023-02-04T06:22:31;101913.31;;;8.24;100.00
27334;BME280;14817;57.104;-2.094;2023-02-04T06:24:57;101914.06;;;8.26;100.00
27334;BME280;14817;57.104;-2.094;2023-02-04T06:27:24;101913.19;;;8.25;100.00
27334;BME280;14817;57.104;-2.094;2023-02-04T06:29:51;101911.66;;;8.21;100.00
27334;BME280;14817;57.104;-2.094;2023-02-04T06:32:18;101915.22;;;8.22;100.00
27334;BME280;14817;57.104;-2.094;2023-02-04T06:34:45;101910.72;;;8.22;100.00
27334;BME280;14817;57.104;-2.094;2023-02-04T06:37:11;101910.72;;;8.22;100.00
27334;BME280;14817;57.104;-2.094;2023-02-04T06:39:39;101912.22;;;8.26;100.00
27334;BME280;14817;57.104;-2.094;2023-02-04T06:42:05;101920.34;;;8.25;100.00
27334;BME280;14817;57.104;-2.094;2023-02-04T06:44:32;101921.50;;;8.21;100.00
27334;BME280;14817;57.104;-2.094;2023-02-04T06:46:59;101916.50;;;8.29;100.00
27334;BME280;14817;57.104;-2.094;2023-02-04T06:49:25;101917.66;;;8.25;100.00
27334;BME280;14817;57.104;-2.094;2023-02-04T06:51:52;101919.69;;;8.21;100.00
27334;BME280;14817;57.104;-2.094;2023-02-04T06:54:20;101913.72;;;8.17;100.00
27334;BME280;14817;57.104;-2.094;2023-02-04T06:56:47;101913.06;;;8.14;100.00
27334;BME280;14817;57.104;-2.094;2023-02-04T06:59:14;101903.22;;;8.14;100.00
27334;BME280;14817;57.104;-2.094;2023-02-04T07:01:40;101910.28;;;8.15;100.00
27334;BME280;14817;57.104;-2.094;2023-02-04T07:04:07;101914.56;;;8.18;100.00
27334;BME280;14817;57.104;-2.094;2023-02-04T07:06:34;101916.38;;;8.17;100.00
27334;BME280;14817;57.104;-2.094;2023-02-04T07:09:00;101918.16;;;8.17;100.00
27334;BME280;14817;57.104;-2.094;2023-02-04T07:11:27;101931.50;;;8.17;100.00
27334;BME280;14817;57.104;-2.094;2023-02-04T07:13:54;101928.09;;;8.15;100.00
27334;BME280;14817;57.104;-2.094;2023-02-04T07:16:21;101917.84;;;8.09;100.00
27334;BME280;14817;57.104;-2.094;2023-02-04T07:18:48;101925.28;;;8.04;100.00
27334;BME280;14817;57.104;-2.094;2023-02-04T07:21:14;101916.44;;;8.03;100.00
27334;BME280;14817;57.104;-2.094;2023-02-04T07:23:41;101921.31;;;7.96;100.00
27334;BME280;14817;57.104;-2.094;2023-02-04T07:26:07;101928.66;;;7.93;100.00
27334;BME280;14817;57.104;-2.094;2023-02-04T07:28:34;101927.38;;;7.86;100.00
27334;BME280;14817;57.104;-2.094;2023-02-04T07:31:02;101924.03;;;7.82;100.00
27334;BME280;14817;57.104;-2.094;2023-02-04T07:33:29;101917.19;;;7.78;100.00
27334;BME280;14817;57.104;-2.094;2023-02-04T07:35:55;101926.91;;;7.79;100.00
27334;BME280;14817;57.104;-2.094;2023-02-04T07:38:22;101917.19;;;7.78;100.00
27334;BME280;14817;57.104;-2.094;2023-02-04T07:40:49;101921.00;;;7.74;100.00
27334;BME280;14817;57.104;-2.094;2023-02-04T07:43:15;101922.72;;;7.75;100.00
27334;BME280;14817;57.104;-2.094;2023-02-04T07:45:42;101923.03;;;7.70;100.00
27334;BME280;14817;57.104;-2.094;2023-02-04T07:48:09;101917.78;;;7.69;100.00
27334;BME280;14817;57.104;-2.094;2023-02-04T07:50:36;101919.03;;;7.63;100.00
27334;BME280;14817;57.104;-2.094;2023-02-04T07:53:03;101907.72;;;7.60;100.00
27334;BME280;14817;57.104;-2.094;2023-02-04T07:55:29;101906.38;;;7.52;100.00
27334;BME280;14817;57.104;-2.094;2023-02-04T07:57:56;101908.13;;;7.53;100.00
27334;BME280;14817;57.104;-2.094;2023-02-04T08:00:23;101901.81;;;7.54;100.00
27334;BME280;14817;57.104;-2.094;2023-02-04T08:02:50;101911.53;;;7.55;100.00
27334;BME280;14817;57.104;-2.094;2023-02-04T08:05:17;101911.53;;;7.55;100.00
27334;BME280;14817;57.104;-2.094;2023-02-04T08:07:44;101907.81;;;7.58;100.00
27334;BME280;14817;57.104;-2.094;2023-02-04T08:10:11;101901.34;;;7.62;100.00
27334;BME280;14817;57.104;-2.094;2023-02-04T08:12:37;101908.34;;;7.63;100.00
27334;BME280;14817;57.104;-2.094;2023-02-04T08:15:04;101907.44;;;7.64;100.00
27334;BME280;14817;57.104;-2.094;2023-02-04T08:17:33;101898.66;;;7.62;100.00
27334;BME280;14817;57.104;-2.094;2023-02-04T08:19:59;101903.69;;;7.67;100.00
27334;BME280;14817;57.104;-2.094;2023-02-04T08:22:26;101905.41;;;7.68;100.00
27334;BME280;14817;57.104;-2.094;2023-02-04T08:24:53;101906.28;;;7.68;100.00
27334;BME280;14817;57.104;-2.094;2023-02-04T08:27:19;101898.91;;;7.72;100.00
27334;BME280;14817;57.104;-2.094;2023-02-04T08:29:46;101897.22;;;7.71;100.00
27334;BME280;14817;57.104;-2.094;2023-02-04T08:32:14;101897.97;;;7.73;100.00
27334;BME280;14817;57.104;-2.094;2023-02-04T08:34:41;101898.91;;;7.72;100.00
27334;BME280;14817;57.104;-2.094;2023-02-04T08:37:09;101889.84;;;7.74;100.00
27334;BME280;14817;57.104;-2.094;2023-02-04T08:39:36;101891.56;;;7.75;100.00
27334;BME280;14817;57.104;-2.094;2023-02-04T08:42:03;101898.81;;;7.73;100.00
27334;BME280;14817;57.104;-2.094;2023-02-04T08:44:30;101900.50;;;7.74;100.00
27334;BME280;14817;57.104;-2.094;2023-02-04T08:46:56;101906.50;;;7.78;100.00
27334;BME280;14817;57.104;-2.094;2023-02-04T08:49:23;101901.19;;;7.78;100.00
27334;BME280;14817;57.104;-2.094;2023-02-04T08:51:50;101894.16;;;7.77;100.00
27334;BME280;14817;57.104;-2.094;2023-02-04T08:54:16;101895.00;;;7.77;100.00
27334;BME280;14817;57.104;-2.094;2023-02-04T08:56:43;101896.69;;;7.78;100.00
27334;BME280;14817;57.104;-2.094;2023-02-04T08:59:10;101886.69;;;7.82;100.00
27334;BME280;14817;57.104;-2.094;2023-02-04T09:01:37;101883.94;;;7.84;100.00
27334;BME280;14817;57.104;-2.094;2023-02-04T09:04:04;101884.88;;;7.83;100.00
27334;BME280;14817;57.104;-2.094;2023-02-04T09:06:30;101877.31;;;7.89;100.00
27334;BME280;14817;57.104;-2.094;2023-02-04T09:08:57;101880.94;;;7.88;100.00
27334;BME280;14817;57.104;-2.094;2023-02-04T09:11:23;101872.84;;;7.90;100.00
27334;BME280;14817;57.104;-2.094;2023-02-04T09:13:50;101883.31;;;7.93;100.00
27334;BME280;14817;57.104;-2.094;2023-02-04T09:16:17;101876.28;;;7.92;100.00
27334;BME280;14817;57.104;-2.094;2023-02-04T09:18:44;101871.56;;;7.95;100.00
27334;BME280;14817;57.104;-2.094;2023-02-04T09:21:10;101876.72;;;7.98;100.00
27334;BME280;14817;57.104;-2.094;2023-02-04T09:23:37;101885.25;;;8.04;100.00
27334;BME280;14817;57.104;-2.094;2023-02-04T09:26:03;101882.81;;;8.01;100.00
27334;BME280;14817;57.104;-2.094;2023-02-04T09:28:31;101882.81;;;8.01;100.00
27334;BME280;14817;57.104;-2.094;2023-02-04T09:30:58;101883.91;;;8.11;100.00
27334;BME280;14817;57.104;-2.094;2023-02-04T09:33:25;101891.03;;;8.10;100.00
27334;BME280;14817;57.104;-2.094;2023-02-04T09:35:52;101886.59;;;8.11;100.00
27334;BME280;14817;57.104;-2.094;2023-02-04T09:38:19;101898.63;;;8.16;100.00
27334;BME280;14817;57.104;-2.094;2023-02-04T09:40:48;101899.84;;;8.25;100.00
27334;BME280;14817;57.104;-2.094;2023-02-04T09:43:17;101904.97;;;8.28;100.00
27334;BME280;14817;57.104;-2.094;2023-02-04T09:45:46;101894.94;;;8.32;100.00
27334;BME280;14817;57.104;-2.094;2023-02-04T09:48:14;101895.41;;;8.38;100.00
27334;BME280;14817;57.104;-2.094;2023-02-04T09:50:40;101896.06;;;8.42;100.00
27334;BME280;14817;57.104;-2.094;2023-02-04T09:53:11;101892.78;;;8.51;100.00
27334;BME280;14817;57.104;-2.094;2023-02-04T09:55:39;101894.56;;;8.51;100.00
27334;BME280;14817;57.104;-2.094;2023-02-04T09:58:13;101891.72;;;8.54;100.00
27334;BME280;14817;57.104;-2.094;2023-02-04T10:00:43;101882.94;;;8.52;100.00
27334;BME280;14817;57.104;-2.094;2023-02-04T10:03:14;101890.53;;;8.58;100.00
27334;BME280;14817;57.104;-2.094;2023-02-04T10:05:42;101894.81;;;8.61;100.00
27334;BME280;14817;57.104;-2.094;2023-02-04T10:08:13;101894.78;;;8.48;100.00
27334;BME280;14817;57.104;-2.094;2023-02-04T10:10:40;101902.72;;;8.49;100.00
27334;BME280;14817;57.104;-2.094;2023-02-04T10:13:07;101892.66;;;8.53;100.00
27334;BME280;14817;57.104;-2.094;2023-02-04T10:15:35;101875.78;;;8.65;100.00
27334;BME280;14817;57.104;-2.094;2023-02-04T10:18:03;101881.88;;;8.67;100.00
27334;BME280;14817;57.104;-2.094;2023-02-04T10:20:32;101889.03;;;8.67;100.00
27334;BME280;14817;57.104;-2.094;2023-02-04T10:22:59;101860.84;;;8.75;100.00
27334;BME280;14817;57.104;-2.094;2023-02-04T10:25:26;101868.84;;;8.75;100.00
27334;BME280;14817;57.104;-2.094;2023-02-04T10:27:54;101868.63;;;8.78;100.00
27334;BME280;14817;57.104;-2.094;2023-02-04T10:30:25;101866.19;;;8.75;100.00
27334;BME280;14817;57.104;-2.094;2023-02-04T10:32:52;101872.59;;;8.86;100.00
27334;BME280;14817;57.104;-2.094;2023-02-04T10:35:20;101867.34;;;8.84;100.00
27334;BME280;14817;57.104;-2.094;2023-02-04T10:37:47;101871.94;;;8.95;100.00
27334;BME280;14817;57.104;-2.094;2023-02-04T10:40:30;101879.84;;;8.84;100.00
27334;BME280;14817;57.104;-2.094;2023-02-04T10:42:57;101884.97;;;8.87;100.00
27334;BME280;14817;57.104;-2.094;2023-02-04T10:45:25;101878.13;;;8.83;100.00
27334;BME280;14817;57.104;-2.094;2023-02-04T10:47:52;101874.84;;;8.79;100.00
27334;BME280;14817;57.104;-2.094;2023-02-04T10:50:20;101883.69;;;8.79;100.00
27334;BME280;14817;57.104;-2.094;2023-02-04T10:52:48;101874.19;;;8.75;100.00
27334;BME280;14817;57.104;-2.094;2023-02-04T10:55:17;101885.94;;;8.86;100.00
27334;BME280;14817;57.104;-2.094;2023-02-04T10:57:45;101876.19;;;8.97;100.00
27334;BME280;14817;57.104;-2.094;2023-02-04T11:00:14;101875.88;;;9.02;100.00
27334;BME280;14817;57.104;-2.094;2023-02-04T11:05:30;101862.84;;;8.97;100.00
27334;BME280;14817;57.104;-2.094;2023-02-04T11:07:57;101864.13;;;9.05;100.00
27334;BME280;14817;57.104;-2.094;2023-02-04T11:10:28;101856.63;;;9.10;100.00
27334;BME280;14817;57.104;-2.094;2023-02-04T11:15:35;101873.44;;;8.99;100.00
27334;BME280;14817;57.104;-2.094;2023-02-04T11:18:28;101870.44;;;9.04;100.00
27334;BME280;14817;57.104;-2.094;2023-02-04T11:20:54;101877.94;;;8.86;100.00
27334;BME280;14817;57.104;-2.094;2023-02-04T11:26:12;101873.78;;;8.82;100.00
27334;BME280;14817;57.104;-2.094;2023-02-04T11:28:46;101873.88;;;8.80;100.00
27334;BME280;14817;57.104;-2.094;2023-02-04T11:32:00;101878.69;;;8.75;100.00
27334;BME280;14817;57.104;-2.094;2023-02-04T11:39:26;101873.44;;;8.48;100.00
27334;BME280;14817;57.104;-2.094;2023-02-04T11:41:54;101870.00;;;8.46;100.00
27334;BME280;14817;57.104;-2.094;2023-02-04T11:44:20;101864.22;;;8.39;100.00
27334;BME280;14817;57.104;-2.094;2023-02-04T11:46:49;101862.81;;;8.33;100.00
27334;BME280;14817;57.104;-2.094;2023-02-04T11:49:17;101858.84;;;8.13;100.00
27334;BME280;14817;57.104;-2.094;2023-02-04T11:51:44;101859.81;;;8.25;100.00
27334;BME280;14817;57.104;-2.094;2023-02-04T11:54:12;101854.88;;;8.19;100.00
27334;BME280;14817;57.104;-2.094;2023-02-04T11:56:41;101847.59;;;8.08;100.00
27334;BME280;14817;57.104;-2.094;2023-02-04T11:59:08;101845.59;;;8.12;100.00
27334;BME280;14817;57.104;-2.094;2023-02-04T12:01:36;101855.44;;;8.24;100.00
27334;BME280;14817;57.104;-2.094;2023-02-04T12:04:04;101850.50;;;8.18;100.00
27334;BME280;14817;57.104;-2.094;2023-02-04T12:06:33;101851.25;;;8.20;100.00
27334;BME280;14817;57.104;-2.094;2023-02-04T12:09:04;101848.25;;;8.12;100.00
27334;BME280;14817;57.104;-2.094;2023-02-04T12:11:31;101852.44;;;8.16;100.00
27334;BME280;14817;57.104;-2.094;2023-02-04T12:14:04;101838.78;;;8.21;100.00
27334;BME280;14817;57.104;-2.094;2023-02-04T12:16:45;101836.00;;;8.22;100.00
27334;BME280;14817;57.104;-2.094;2023-02-04T12:19:13;101832.25;;;8.25;100.00
27334;BME280;14817;57.104;-2.094;2023-02-04T12:21:40;101838.03;;;8.31;100.00
27334;BME280;14817;57.104;-2.094;2023-02-04T12:24:07;101821.69;;;8.36;100.00
27334;BME280;14817;57.104;-2.094;2023-02-04T12:26:34;101818.69;;;8.28;100.00
27334;BME280;14817;57.104;-2.094;2023-02-04T12:29:01;101814.44;;;8.25;100.00
27334;BME280;14817;57.104;-2.094;2023-02-04T12:31:29;101812.09;;;8.21;100.00
27334;BME280;14817;57.104;-2.094;2023-02-04T12:33:56;101808.75;;;8.17;100.00
27334;BME280;14817;57.104;-2.094;2023-02-04T12:36:22;101806.72;;;8.08;100.00
27334;BME280;14817;57.104;-2.094;2023-02-04T12:38:50;101807.28;;;8.13;100.00
27334;BME280;14817;57.104;-2.094;2023-02-04T12:41:16;101808.47;;;8.34;100.00
27334;BME280;14817;57.104;-2.094;2023-02-04T12:43:45;101797.16;;;8.18;100.00
27334;BME280;14817;57.104;-2.094;2023-02-04T12:46:12;101809.50;;;8.19;100.00
27334;BME280;14817;57.104;-2.094;2023-02-04T12:48:38;101806.84;;;8.19;100.00
27334;BME280;14817;57.104;-2.094;2023-02-04T12:51:06;101810.69;;;8.15;100.00
27334;BME280;14817;57.104;-2.094;2023-02-04T12:53:33;101793.09;;;8.25;100.00
27334;BME280;14817;57.104;-2.094;2023-02-04T12:56:00;101771.53;;;8.15;100.00